Time;durP1;ratioP1;P1;durP2;ratioP2;P2;SDS_P1;SDS_P2;PMS_P1;PMS_P2;Temp;Humidity;BMP_temperature;BMP_pressure;BME280_temperature;BME280_humidity;BME280_pressure;Samples;Min_cycle;Max_cycle;Signal;HPM_P1;HPM_P2
2023/11/13 00:00:42;;;;;;;55.65;23.45;;;3.80;99.90;;;;;;4861767;29;20056;-76
2023/11/13 00:03:12;;;;;;;56.10;24.55;;;4.00;99.90;;;;;;4864918;29;20472;-75
2023/11/13 00:05:41;;;;;;;55.00;22.55;;;3.90;99.90;;;;;;4865010;29;20129;-76
2023/11/13 00:08:09;;;;;;;52.95;22.60;;;3.90;99.90;;;;;;4861071;29;20051;-75
2023/11/13 00:10:38;;;;;;;47.60;21.50;;;3.90;99.90;;;;;;4847861;29;20051;-75
2023/11/13 00:13:06;;;;;;;43.20;20.90;;;3.90;99.90;;;;;;4895239;29;20168;-78
2023/11/13 00:15:35;;;;;;;45.10;19.58;;;4.00;99.90;;;;;;4902555;29;20100;-76
2023/11/13 00:18:04;;;;;;;43.35;19.35;;;3.90;99.90;;;;;;4902122;29;20055;-76
2023/11/13 00:20:34;;;;;;;40.33;19.15;;;4.00;99.90;;;;;;4908821;29;20036;-77
2023/11/13 00:23:04;;;;;;;43.47;20.02;;;4.50;99.90;;;;;;4901915;29;20138;-79
2023/11/13 00:25:32;;;;;;;53.30;21.10;;;5.00;99.90;;;;;;4884505;29;20040;-78
2023/11/13 00:28:01;;;;;;;42.05;18.70;;;4.50;99.90;;;;;;4881296;29;20119;-76
2023/11/13 00:30:30;;;;;;;40.47;19.20;;;4.50;99.90;;;;;;4882814;29;20059;-76
2023/11/13 00:32:58;;;;;;;47.15;20.42;;;4.60;99.90;;;;;;4905154;29;20063;-77
2023/11/13 00:35:27;;;;;;;44.10;19.45;;;4.10;99.90;;;;;;4900043;29;20052;-76
2023/11/13 00:37:57;;;;;;;42.67;20.10;;;4.00;99.90;;;;;;4897860;29;20055;-77
2023/11/13 00:40:27;;;;;;;46.75;21.40;;;4.20;99.90;;;;;;4909778;29;20048;-76
2023/11/13 00:42:56;;;;;;;48.95;21.08;;;4.30;99.90;;;;;;4894345;29;20059;-76
2023/11/13 00:45:24;;;;;;;49.67;21.98;;;4.30;99.90;;;;;;4877354;29;20123;-76
2023/11/13 00:47:53;;;;;;;40.75;19.33;;;4.80;99.90;;;;;;4903348;29;20088;-76
2023/11/13 00:50:22;;;;;;;46.38;20.48;;;5.10;99.90;;;;;;4883919;29;20036;-81
2023/11/13 00:52:51;;;;;;;44.05;21.15;;;4.10;99.90;;;;;;4915946;29;20084;-77
2023/11/13 00:55:21;;;;;;;45.03;21.45;;;4.90;99.90;;;;;;4900087;29;20050;-77
2023/11/13 00:57:50;;;;;;;44.80;21.33;;;4.30;99.90;;;;;;4873776;29;20056;-76
2023/11/13 01:00:21;;;;;;;47.53;20.42;;;5.60;99.90;;;;;;4900527;29;20044;-76
2023/11/13 01:02:49;;;;;;;48.72;20.58;;;4.40;99.90;;;;;;4884289;29;20040;-77
2023/11/13 01:05:18;;;;;;;45.50;20.05;;;3.80;99.90;;;;;;4898659;29;20052;-78
2023/11/13 01:07:48;;;;;;;44.38;20.42;;;4.00;99.90;;;;;;4902153;29;20028;-78
2023/11/13 01:10:16;;;;;;;44.53;20.80;;;5.60;99.90;;;;;;4913549;29;20074;-77
2023/11/13 01:12:46;;;;;;;50.95;22.50;;;4.10;99.90;;;;;;4930255;29;20119;-77
2023/11/13 01:15:15;;;;;;;46.63;21.50;;;4.80;99.90;;;;;;4915978;29;20047;-76
2023/11/13 01:17:44;;;;;;;45.40;20.10;;;4.20;99.90;;;;;;4929696;29;20070;-76
2023/11/13 01:20:14;;;;;;;39.05;18.65;;;4.10;99.90;;;;;;4915279;29;20044;-76
2023/11/13 01:22:42;;;;;;;40.45;18.20;;;4.20;99.90;;;;;;4904588;29;20403;-77
2023/11/13 01:25:11;;;;;;;39.33;18.90;;;4.10;99.90;;;;;;4882365;29;21212;-77
2023/11/13 01:27:40;;;;;;;38.00;16.38;;;3.90;99.90;;;;;;4855271;29;20047;-76
2023/11/13 01:30:12;;;;;;;34.38;16.48;;;3.90;99.90;;;;;;4895396;29;20048;-77
2023/11/13 01:32:40;;;;;;;31.73;16.92;;;3.90;99.90;;;;;;4881153;29;20059;-77
2023/11/13 01:35:10;;;;;;;35.13;15.60;;;3.90;99.90;;;;;;4901907;29;20055;-77
2023/11/13 01:37:38;;;;;;;36.42;15.80;;;4.00;99.90;;;;;;4891586;29;20059;-77
2023/11/13 01:40:08;;;;;;;33.35;14.20;;;3.90;99.90;;;;;;4880638;29;20095;-77
2023/11/13 01:42:37;;;;;;;33.92;14.25;;;3.90;99.90;;;;;;4879660;29;20885;-77
2023/11/13 01:45:06;;;;;;;34.38;14.57;;;4.00;99.90;;;;;;4879743;29;20121;-78
2023/11/13 01:47:37;;;;;;;33.83;15.77;;;3.90;99.90;;;;;;4899405;29;20538;-77
2023/11/13 01:50:06;;;;;;;36.67;15.60;;;3.90;99.90;;;;;;4881979;29;22161;-77
2023/11/13 01:52:35;;;;;;;31.55;15.05;;;3.90;99.90;;;;;;4878351;29;20058;-77
2023/11/13 01:55:05;;;;;;;32.58;15.13;;;3.90;99.90;;;;;;4897299;29;20052;-77
2023/11/13 01:57:35;;;;;;;32.38;14.43;;;4.00;99.90;;;;;;4876584;29;20059;-77
2023/11/13 02:00:05;;;;;;;31.65;14.13;;;4.00;99.90;;;;;;4866424;29;22177;-77
2023/11/13 02:02:41;;;;;;;31.10;13.65;;;4.00;99.90;;;;;;4881677;29;20059;-77
2023/11/13 02:05:10;;;;;;;32.08;14.32;;;4.10;99.90;;;;;;4879204;29;20056;-77
2023/11/13 02:07:43;;;;;;;29.73;12.93;;;3.90;99.90;;;;;;4881477;29;20903;-77
2023/11/13 02:10:13;;;;;;;23.02;11.30;;;4.00;99.90;;;;;;4839112;29;20186;-76
2023/11/13 02:12:42;;;;;;;26.55;11.70;;;3.90;99.90;;;;;;4860347;29;20063;-77
2023/11/13 02:15:11;;;;;;;26.10;12.63;;;3.90;99.90;;;;;;4863040;29;20283;-77
2023/11/13 02:17:41;;;;;;;32.08;14.02;;;3.90;99.90;;;;;;4861597;29;20056;-77
2023/11/13 02:20:10;;;;;;;32.13;12.95;;;3.90;99.90;;;;;;4857969;29;20078;-77
2023/11/13 02:22:39;;;;;;;25.40;12.93;;;3.90;99.90;;;;;;4859638;29;20048;-77
2023/11/13 02:25:11;;;;;;;26.77;12.63;;;3.80;99.90;;;;;;4860292;29;22202;-77
2023/11/13 02:27:40;;;;;;;23.67;11.73;;;3.80;99.90;;;;;;4862642;29;20819;-77
2023/11/13 02:30:09;;;;;;;22.85;11.00;;;3.70;99.90;;;;;;4861396;29;20048;-77
2023/11/13 02:32:38;;;;;;;24.17;10.52;;;3.70;99.90;;;;;;4847863;29;20531;-77
2023/11/13 02:35:08;;;;;;;21.48;9.82;;;3.80;99.90;;;;;;4859524;29;20780;-77
2023/11/13 02:37:37;;;;;;;21.90;10.90;;;3.80;99.90;;;;;;4860459;29;20059;-77
2023/11/13 02:40:06;;;;;;;17.20;9.05;;;3.70;99.90;;;;;;4876385;29;20401;-77
2023/11/13 02:42:39;;;;;;;19.10;9.27;;;3.70;99.90;;;;;;4840735;29;20156;-77
2023/11/13 02:45:09;;;;;;;20.50;10.93;;;3.80;99.90;;;;;;4853771;29;22414;-76
2023/11/13 02:47:37;;;;;;;19.48;10.65;;;3.70;99.90;;;;;;4852816;29;20055;-76
2023/11/13 02:50:09;;;;;;;22.83;11.18;;;3.60;99.90;;;;;;4859087;29;20285;-77
2023/11/13 02:52:38;;;;;;;25.00;10.18;;;3.60;99.90;;;;;;4844700;29;20147;-77
2023/11/13 02:55:09;;;;;;;19.13;9.93;;;3.60;99.90;;;;;;4880529;29;20076;-76
2023/11/13 02:57:39;;;;;;;20.70;10.13;;;3.60;99.90;;;;;;4878001;29;20051;-76
2023/11/13 03:00:09;;;;;;;23.30;10.55;;;3.70;99.90;;;;;;4859312;29;22241;-77
2023/11/13 03:02:38;;;;;;;22.75;11.45;;;3.60;99.90;;;;;;4863029;29;20075;-77
2023/11/13 03:05:08;;;;;;;25.65;11.23;;;3.70;99.90;;;;;;4860463;29;20484;-76
2023/11/13 03:07:37;;;;;;;31.25;12.95;;;3.70;99.90;;;;;;4841980;29;20060;-77
2023/11/13 03:10:06;;;;;;;22.77;11.23;;;3.70;99.90;;;;;;4874054;29;20619;-77
2023/11/13 03:12:35;;;;;;;22.90;11.80;;;3.70;99.90;;;;;;4864872;29;20052;-77
2023/11/13 03:15:06;;;;;;;18.90;10.80;;;3.70;99.90;;;;;;4864969;29;20068;-77
2023/11/13 03:17:34;;;;;;;24.70;10.85;;;3.70;99.90;;;;;;4879925;29;20052;-76
2023/11/13 03:20:04;;;;;;;20.63;10.50;;;3.80;99.90;;;;;;4875319;29;20209;-77
2023/11/13 03:22:32;;;;;;;21.65;10.27;;;4.10;99.90;;;;;;4864999;29;20142;-76
2023/11/13 03:25:01;;;;;;;19.85;9.07;;;3.70;99.90;;;;;;4860227;29;20044;-76
2023/11/13 03:27:30;;;;;;;17.63;8.75;;;3.70;99.90;;;;;;4864149;29;20110;-76
2023/11/13 03:29:59;;;;;;;16.05;8.52;;;3.70;99.90;;;;;;4862626;29;20176;-77
2023/11/13 03:32:29;;;;;;;23.08;11.40;;;3.70;99.90;;;;;;4859867;29;20191;-77
2023/11/13 03:34:57;;;;;;;24.02;10.70;;;3.60;99.90;;;;;;4864115;29;20044;-77
2023/11/13 03:37:25;;;;;;;25.45;11.13;;;3.70;99.90;;;;;;4863055;29;20052;-77
2023/11/13 03:39:54;;;;;;;18.75;9.00;;;3.70;99.90;;;;;;4875653;29;20063;-77
2023/11/13 03:42:22;;;;;;;20.20;9.15;;;3.70;99.90;;;;;;4880532;29;20166;-77
2023/11/13 03:44:51;;;;;;;14.68;7.75;;;3.70;99.90;;;;;;4896801;29;20191;-76
2023/11/13 03:47:19;;;;;;;18.00;8.27;;;3.70;99.90;;;;;;4901159;29;20047;-76
2023/11/13 03:49:49;;;;;;;17.05;7.65;;;3.60;99.90;;;;;;4909047;29;20141;-80
2023/11/13 03:52:18;;;;;;;15.93;7.57;;;3.70;99.90;;;;;;4884354;29;20052;-76
2023/11/13 03:54:46;;;;;;;18.23;7.95;;;3.90;99.90;;;;;;4888772;29;20123;-80
2023/11/13 03:57:15;;;;;;;15.20;8.00;;;4.00;99.90;;;;;;4905326;29;20163;-76
2023/11/13 03:59:45;;;;;;;11.55;6.15;;;4.40;99.90;;;;;;4902326;29;20096;-76
2023/11/13 04:02:14;;;;;;;21.00;8.25;;;4.60;99.90;;;;;;4906309;29;20048;-76
2023/11/13 04:04:42;;;;;;;26.40;11.07;;;4.40;99.90;;;;;;4903755;29;20080;-76
2023/11/13 04:07:13;;;;;;;31.30;12.73;;;3.80;99.90;;;;;;4901303;29;20055;-79
2023/11/13 04:09:41;;;;;;;28.73;11.98;;;4.10;99.90;;;;;;4907628;29;20048;-78
2023/11/13 04:12:10;;;;;;;24.27;9.93;;;4.10;99.90;;;;;;4914548;29;20048;-79
2023/11/13 04:14:39;;;;;;;23.33;10.30;;;3.50;99.90;;;;;;4927644;28;20054;-77
2023/11/13 04:17:08;;;;;;;25.75;10.90;;;4.10;99.90;;;;;;4918401;29;20072;-80
2023/11/13 04:19:37;;;;;;;22.27;10.73;;;5.00;99.90;;;;;;4891871;29;20070;-78
2023/11/13 04:22:07;;;;;;;19.38;9.93;;;4.50;99.90;;;;;;4923601;29;20045;-77
2023/11/13 04:24:37;;;;;;;25.88;10.50;;;4.80;99.90;;;;;;4914037;29;20088;-78
2023/11/13 04:27:06;;;;;;;21.30;9.43;;;4.20;99.90;;;;;;4899853;29;20107;-80
2023/11/13 04:29:35;;;;;;;20.02;8.52;;;4.20;99.90;;;;;;4898257;29;20058;-77
2023/11/13 04:32:04;;;;;;;17.95;8.52;;;4.90;99.90;;;;;;4900112;29;20056;-80
2023/11/13 04:34:34;;;;;;;17.20;8.82;;;5.30;99.90;;;;;;4899272;29;20052;-77
2023/11/13 04:37:05;;;;;;;16.23;7.90;;;4.20;99.90;;;;;;4899651;29;20048;-79
2023/11/13 04:39:34;;;;;;;16.45;8.60;;;4.40;99.90;;;;;;4914395;29;20064;-77
2023/11/13 04:42:04;;;;;;;17.10;8.10;;;4.90;99.90;;;;;;4887819;29;20052;-80
2023/11/13 04:44:33;;;;;;;15.55;7.90;;;5.40;99.90;;;;;;4901807;29;20049;-77
2023/11/13 04:47:02;;;;;;;15.68;6.75;;;5.00;99.90;;;;;;4897662;29;20052;-78
2023/11/13 04:49:31;;;;;;;16.02;7.20;;;4.70;99.90;;;;;;4898481;29;20083;-77
2023/11/13 04:51:59;;;;;;;15.18;7.50;;;4.10;99.90;;;;;;4923882;29;20076;-77
2023/11/13 04:54:28;;;;;;;16.80;7.00;;;5.00;99.90;;;;;;4905203;29;20047;-79
2023/11/13 04:56:57;;;;;;;13.70;7.13;;;3.90;99.90;;;;;;4914035;29;20063;-80
2023/11/13 04:59:27;;;;;;;15.13;7.20;;;4.30;99.90;;;;;;4898494;29;20052;-78
2023/11/13 05:01:56;;;;;;;16.02;7.35;;;4.90;99.90;;;;;;4897801;29;20067;-78
2023/11/13 05:04:26;;;;;;;12.48;6.95;;;2.70;99.90;;;;;;4898911;29;20112;-78
2023/11/13 05:06:56;;;;;;;14.20;6.70;;;4.10;99.90;;;;;;4905891;29;20158;-79
2023/11/13 05:09:26;;;;;;;14.35;6.78;;;3.00;99.90;;;;;;4923766;29;20084;-82
2023/11/13 05:11:55;;;;;;;15.20;8.13;;;5.10;99.90;;;;;;4896467;29;20056;-78
2023/11/13 05:14:23;;;;;;;16.08;7.22;;;3.50;99.90;;;;;;4912057;29;20067;-77
2023/11/13 05:16:56;;;;;;;15.57;7.05;;;3.90;99.90;;;;;;4904980;29;20064;-77
2023/11/13 05:19:25;;;;;;;19.42;8.70;;;5.80;99.90;;;;;;4898572;29;20036;-78
2023/11/13 05:21:54;;;;;;;18.17;8.55;;;4.70;99.90;;;;;;4913543;29;20048;-77
2023/11/13 05:24:23;;;;;;;19.08;9.32;;;4.80;99.90;;;;;;4910546;29;20063;-81
2023/11/13 05:26:53;;;;;;;21.30;10.25;;;6.00;99.90;;;;;;4897241;29;20052;-78
2023/11/13 05:29:23;;;;;;;21.30;10.20;;;5.10;99.90;;;;;;4905342;29;20060;-78
2023/11/13 05:31:53;;;;;;;23.25;10.95;;;5.20;99.90;;;;;;4899821;29;20063;-80
2023/11/13 05:34:24;;;;;;;25.77;11.02;;;4.40;99.90;;;;;;4914169;29;20224;-79
2023/11/13 05:36:53;;;;;;;23.05;11.50;;;4.60;99.90;;;;;;4899501;29;20064;-77
2023/11/13 05:39:22;;;;;;;25.58;10.40;;;4.50;99.90;;;;;;4897923;29;20063;-78
2023/11/13 05:41:51;;;;;;;20.73;9.85;;;5.20;99.90;;;;;;4913674;29;20084;-78
2023/11/13 05:44:20;;;;;;;18.90;8.95;;;4.60;99.90;;;;;;4912989;29;20068;-77
2023/11/13 05:46:49;;;;;;;19.88;9.25;;;5.30;99.90;;;;;;4910665;29;22065;-79
2023/11/13 05:49:18;;;;;;;24.05;10.00;;;5.30;99.90;;;;;;4914012;29;20075;-77
2023/11/13 05:51:48;;;;;;;22.10;9.77;;;4.60;99.90;;;;;;4915951;29;22168;-80
2023/11/13 05:54:18;;;;;;;19.23;8.93;;;5.30;99.90;;;;;;4924351;29;20055;-82
2023/11/13 05:56:47;;;;;;;19.45;8.77;;;4.60;99.90;;;;;;4910357;29;20078;-81
2023/11/13 05:59:16;;;;;;;19.33;9.63;;;4.70;99.90;;;;;;4907619;29;20110;-77
2023/11/13 06:01:44;;;;;;;19.42;9.52;;;3.60;99.90;;;;;;4891225;29;20063;-78
2023/11/13 06:04:13;;;;;;;20.60;10.05;;;4.70;99.90;;;;;;4884241;29;20036;-78
2023/11/13 06:06:42;;;;;;;20.02;10.45;;;4.50;99.90;;;;;;4878398;29;20139;-78
2023/11/13 06:09:12;;;;;;;20.27;10.00;;;4.50;99.90;;;;;;4864203;29;20060;-78
2023/11/13 06:11:40;;;;;;;21.42;10.10;;;4.40;99.90;;;;;;4888470;29;20062;-80
2023/11/13 06:14:09;;;;;;;22.67;10.77;;;4.40;99.90;;;;;;4888978;29;20200;-80
2023/11/13 06:16:37;;;;;;;21.10;10.85;;;4.50;99.90;;;;;;4885357;29;20174;-80
2023/11/13 06:19:07;;;;;;;21.38;9.57;;;4.60;99.90;;;;;;4896026;29;20063;-80
2023/11/13 06:21:36;;;;;;;18.52;9.27;;;4.50;99.90;;;;;;4887017;29;20050;-80
2023/11/13 06:24:05;;;;;;;20.63;10.15;;;4.50;99.90;;;;;;4870031;29;20052;-80
2023/11/13 06:26:35;;;;;;;21.83;10.45;;;5.20;99.90;;;;;;4886684;29;20060;-80
2023/11/13 06:29:04;;;;;;;19.00;9.70;;;4.90;99.90;;;;;;4907274;29;20078;-80
2023/11/13 06:31:34;;;;;;;19.70;10.40;;;5.20;99.90;;;;;;4877484;29;20512;-79
2023/11/13 06:34:03;;;;;;;20.92;10.30;;;6.50;99.90;;;;;;4882631;29;20656;-80
2023/11/13 06:36:32;;;;;;;23.08;11.02;;;4.10;99.90;;;;;;4889250;29;20603;-79
2023/11/13 06:39:01;;;;;;;23.00;11.60;;;5.60;99.90;;;;;;4905122;29;20130;-80
2023/11/13 06:41:29;;;;;;;22.38;10.65;;;4.70;99.90;;;;;;4890225;29;20063;-80
2023/11/13 06:44:04;;;;;;;19.90;9.98;;;5.40;99.90;;;;;;4885705;29;20048;-80
2023/11/13 06:46:33;;;;;;;21.02;9.35;;;6.10;99.90;;;;;;4898833;29;20051;-80
2023/11/13 06:49:01;;;;;;;15.90;8.82;;;5.10;99.90;;;;;;4886344;29;20066;-80
2023/11/13 06:51:30;;;;;;;16.67;7.88;;;5.20;99.90;;;;;;4893893;29;20056;-80
2023/11/13 06:53:59;;;;;;;19.50;9.35;;;4.90;99.90;;;;;;4897002;29;20060;-79
2023/11/13 06:56:27;;;;;;;18.70;9.23;;;5.10;99.90;;;;;;4890417;29;20054;-80
2023/11/13 06:58:56;;;;;;;15.63;8.23;;;5.20;99.90;;;;;;4886801;29;20075;-80
2023/11/13 07:01:26;;;;;;;18.48;8.05;;;4.90;99.90;;;;;;4882752;29;20144;-81
2023/11/13 07:03:55;;;;;;;17.30;8.48;;;3.00;99.90;;;;;;4870990;29;22000;-80
2023/11/13 07:06:24;;;;;;;17.52;9.02;;;5.40;99.90;;;;;;4901167;29;20059;-80
2023/11/13 07:08:52;;;;;;;18.10;9.27;;;4.90;99.90;;;;;;4878920;29;20074;-80
2023/11/13 07:11:22;;;;;;;19.05;9.00;;;3.70;99.90;;;;;;4904582;29;20060;-81
2023/11/13 07:13:52;;;;;;;19.67;8.65;;;4.70;99.90;;;;;;4910153;29;20074;-79
2023/11/13 07:16:20;;;;;;;19.17;9.80;;;7.00;99.90;;;;;;4915724;29;20051;-81
2023/11/13 07:18:53;;;;;;;18.58;8.80;;;4.90;99.90;;;;;;4923286;29;20129;-81
2023/11/13 07:21:22;;;;;;;21.37;10.03;;;4.50;99.90;;;;;;4912773;29;20066;-85
2023/11/13 07:23:52;;;;;;;22.20;9.05;;;5.30;99.90;;;;;;4903479;29;20063;-82
2023/11/13 07:26:21;;;;;;;17.17;8.55;;;5.50;99.90;;;;;;4900168;29;20082;-84
2023/11/13 07:28:49;;;;;;;19.30;9.68;;;5.30;99.90;;;;;;4910568;29;21912;-83
2023/11/13 07:31:19;;;;;;;19.52;9.25;;;5.40;99.90;;;;;;4923629;29;20052;-82
2023/11/13 07:33:48;;;;;;;18.70;9.80;;;2.80;99.90;;;;;;4917066;29;20103;-80
2023/11/13 07:36:18;;;;;;;19.88;9.32;;;4.10;99.90;;;;;;4909520;29;20051;-85
2023/11/13 07:38:47;;;;;;;22.75;10.35;;;5.30;99.90;;;;;;4897228;29;20311;-84
2023/11/13 07:41:16;;;;;;;24.90;10.10;;;5.50;99.90;;;;;;4915438;29;20054;-86
2023/11/13 07:43:48;;;;;;;23.25;10.15;;;5.80;99.90;;;;;;4921772;29;20044;-85
2023/11/13 07:46:18;;;;;;;24.38;11.35;;;5.50;99.90;;;;;;4912028;29;20079;-79
2023/11/13 07:48:47;;;;;;;26.75;11.80;;;5.90;99.90;;;;;;4916551;29;20044;-82
2023/11/13 07:51:17;;;;;;;27.98;13.77;;;5.20;99.90;;;;;;4903391;29;20052;-82
2023/11/13 07:53:48;;;;;;;25.45;12.18;;;5.30;99.90;;;;;;4900689;29;20048;-85
2023/11/13 07:56:21;;;;;;;21.48;10.80;;;6.70;99.90;;;;;;4915387;29;20085;-79
2023/11/13 07:58:50;;;;;;;;;;;5.40;99.90;;;;;;4930997;29;20047;-82
2023/11/13 08:01:20;;;;;;;16.33;8.60;;;4.60;99.90;;;;;;4911686;29;19954;-82
2023/11/13 08:03:49;;;;;;;18.85;9.18;;;5.80;99.90;;;;;;4922704;29;20047;-87
2023/11/13 08:06:18;;;;;;;14.68;8.25;;;6.00;99.90;;;;;;4935060;29;20082;-86
2023/11/13 08:08:50;;;;;;;19.00;8.55;;;4.40;99.90;;;;;;4905520;29;20060;-80
2023/11/13 08:11:20;;;;;;;17.27;8.27;;;6.10;99.90;;;;;;4893376;29;20099;-79
2023/11/13 08:13:49;;;;;;;14.63;7.70;;;6.00;99.90;;;;;;4901674;29;20056;-80
2023/11/13 08:16:18;;;;;;;15.23;7.40;;;4.10;99.90;;;;;;4876706;29;20055;-80
2023/11/13 08:18:47;;;;;;;20.25;8.98;;;6.90;99.90;;;;;;4873729;29;20070;-80
2023/11/13 08:21:17;;;;;;;14.70;8.25;;;5.70;99.90;;;;;;4876964;29;20793;-80
2023/11/13 08:23:45;;;;;;;17.00;9.27;;;4.90;99.90;;;;;;4879776;29;20048;-80
2023/11/13 08:26:15;;;;;;;16.30;8.48;;;5.80;99.90;;;;;;4896148;29;20101;-80
2023/11/13 08:28:44;;;;;;;14.27;7.63;;;5.90;99.90;;;;;;4862989;29;21011;-80
2023/11/13 08:31:15;;;;;;;14.73;7.60;;;7.10;99.90;;;;;;4878968;29;22246;-80
2023/11/13 08:33:45;;;;;;;18.73;8.25;;;4.70;99.90;;;;;;4887463;29;20067;-80
2023/11/13 08:36:15;;;;;;;14.93;7.90;;;6.20;99.90;;;;;;4879740;29;20066;-80
2023/11/13 08:38:45;;;;;;;14.23;8.27;;;6.20;99.90;;;;;;4889882;29;20079;-80
2023/11/13 08:41:14;;;;;;;14.75;7.00;;;5.20;99.90;;;;;;4904987;29;20051;-80
2023/11/13 08:43:44;;;;;;;13.18;6.65;;;6.40;99.90;;;;;;4901367;29;20079;-80
2023/11/13 08:46:13;;;;;;;14.27;6.85;;;6.40;99.90;;;;;;4878561;29;20394;-80
2023/11/13 08:48:42;;;;;;;13.27;6.18;;;6.30;99.90;;;;;;4878268;29;20056;-80
2023/11/13 08:51:11;;;;;;;13.57;6.55;;;6.40;99.90;;;;;;4884802;29;20180;-80
2023/11/13 08:53:42;;;;;;;13.02;5.93;;;6.40;99.90;;;;;;4887277;29;20804;-80
2023/11/13 08:56:15;;;;;;;10.85;4.95;;;6.50;99.90;;;;;;4862355;29;20062;-80
2023/11/13 08:58:46;;;;;;;13.98;6.10;;;6.50;99.90;;;;;;4877036;29;20060;-80
2023/11/13 09:01:15;;;;;;;14.15;6.30;;;6.60;99.90;;;;;;4864261;29;20055;-80
2023/11/13 09:03:44;;;;;;;13.15;6.25;;;6.60;99.90;;;;;;4878409;29;20052;-81
2023/11/13 09:06:13;;;;;;;12.02;5.93;;;6.80;99.90;;;;;;4878123;29;20199;-80
2023/11/13 09:08:43;;;;;;;14.43;7.28;;;6.80;99.90;;;;;;4864889;29;20064;-80
2023/11/13 09:11:16;;;;;;;12.38;5.13;;;6.80;99.90;;;;;;4896589;29;20083;-80
2023/11/13 09:13:46;;;;;;;168.80;45.42;;;6.80;99.90;;;;;;4912201;29;20075;-80
2023/11/13 09:16:19;;;;;;;62.00;21.42;;;7.00;99.90;;;;;;4900510;29;20444;-80
2023/11/13 09:18:48;;;;;;;22.08;8.43;;;7.00;99.90;;;;;;4908843;29;20538;-80
2023/11/13 09:21:18;;;;;;;17.60;8.25;;;7.00;99.90;;;;;;4893109;29;20066;-80
2023/11/13 09:23:46;;;;;;;18.27;7.43;;;7.10;99.90;;;;;;4893595;29;20059;-80
2023/11/13 09:26:15;;;;;;;13.18;6.57;;;7.10;99.90;;;;;;4897129;29;20143;-80
2023/11/13 09:28:45;;;;;;;20.80;11.02;;;7.50;99.90;;;;;;4910617;29;20051;-80
2023/11/13 09:31:15;;;;;;;27.23;13.75;;;7.50;99.90;;;;;;4897034;29;20059;-80
2023/11/13 09:33:45;;;;;;;13.68;6.68;;;7.60;99.90;;;;;;4874575;29;21936;-80
2023/11/13 09:36:14;;;;;;;17.08;8.35;;;7.50;99.90;;;;;;4897452;29;20077;-80
2023/11/13 09:38:42;;;;;;;15.00;6.50;;;7.50;99.90;;;;;;4898218;29;20154;-81
2023/11/13 09:41:11;;;;;;;17.02;8.73;;;7.50;99.90;;;;;;4895766;29;22031;-81
2023/11/13 09:43:40;;;;;;;21.92;14.23;;;7.40;99.90;;;;;;4881027;29;20487;-81
2023/11/13 09:46:12;;;;;;;16.50;7.65;;;7.50;99.90;;;;;;4895809;29;20126;-81
2023/11/13 09:48:50;;;;;;;14.45;7.20;;;7.60;99.90;;;;;;4878526;29;20055;-81
2023/11/13 09:51:21;;;;;;;13.25;7.22;;;7.70;99.90;;;;;;4879263;29;20061;-80
2023/11/13 09:53:58;;;;;;;16.60;7.70;;;7.70;99.90;;;;;;4876981;29;20082;-80
2023/11/13 09:56:30;;;;;;;16.20;8.00;;;7.80;99.90;;;;;;4895881;29;20052;-81
2023/11/13 09:59:02;;;;;;;20.07;7.80;;;7.70;99.90;;;;;;4896651;29;20842;-80
2023/11/13 10:01:32;;;;;;;13.40;6.43;;;7.70;99.90;;;;;;4898469;29;20055;-80
2023/11/13 10:04:04;;;;;;;14.90;7.80;;;7.80;99.90;;;;;;4896873;29;20055;-81
2023/11/13 10:06:36;;;;;;;;;;;7.90;99.90;;;;;;4897253;29;20190;-81
2023/11/13 10:09:05;;;;;;;18.23;7.30;;;8.00;99.90;;;;;;4901749;29;19931;-81
2023/11/13 10:11:33;;;;;;;15.73;7.88;;;8.10;99.90;;;;;;4876362;29;20063;-81
2023/11/13 10:14:12;;;;;;;20.25;8.55;;;7.90;99.90;;;;;;4862126;29;20059;-81
2023/11/13 10:16:41;;;;;;;13.90;7.32;;;8.00;99.90;;;;;;4850657;29;20494;-81
2023/11/13 10:19:17;;;;;;;15.57;7.50;;;7.90;99.90;;;;;;4874816;29;20063;-80
2023/11/13 10:21:46;;;;;;;15.85;7.70;;;8.40;99.90;;;;;;4874482;29;20084;-81
2023/11/13 10:24:16;;;;;;;15.32;7.55;;;8.00;99.90;;;;;;4867553;29;20052;-80
2023/11/13 10:26:58;;;;;;;20.15;10.52;;;8.00;99.90;;;;;;4873355;29;20164;-81
2023/11/13 10:29:30;;;;;;;21.23;9.30;;;8.10;99.90;;;;;;4890180;29;20143;-81
2023/11/13 10:31:59;;;;;;;17.42;8.85;;;8.10;99.90;;;;;;4871888;29;20048;-80
2023/11/13 10:34:42;;;;;;;18.98;10.30;;;8.20;99.90;;;;;;4871007;29;20083;-80
2023/11/13 10:37:12;;;;;;;14.00;7.72;;;8.30;99.90;;;;;;4871266;29;20204;-80
2023/11/13 10:39:42;;;;;;;12.85;7.00;;;8.50;99.90;;;;;;4872787;29;20107;-80
2023/11/13 10:42:23;;;;;;;12.68;6.93;;;8.40;99.90;;;;;;4891255;29;20139;-75
2023/11/13 10:44:56;;;;;;;14.63;7.13;;;8.40;99.90;;;;;;4895744;29;20048;-76
2023/11/13 10:47:27;;;;;;;13.68;7.25;;;8.60;99.90;;;;;;4847614;29;20068;-76
2023/11/13 10:50:01;;;;;;;10.02;5.78;;;8.70;99.90;;;;;;4881284;29;20424;-77
2023/11/13 10:52:31;;;;;;;11.45;6.32;;;8.70;99.90;;;;;;4884825;29;20213;-77
2023/11/13 10:55:01;;;;;;;12.27;7.03;;;8.60;99.90;;;;;;4875799;29;20048;-76
2023/11/13 10:57:31;;;;;;;11.63;6.68;;;8.60;99.90;;;;;;4878903;29;20466;-76
2023/11/13 11:00:00;;;;;;;12.40;6.95;;;8.60;99.90;;;;;;4863100;29;20509;-75
2023/11/13 11:02:32;;;;;;;12.38;6.95;;;8.50;99.90;;;;;;4861649;29;20571;-75
2023/11/13 11:05:09;;;;;;;12.50;7.68;;;8.50;99.90;;;;;;4863235;29;20173;-76
2023/11/13 11:07:39;;;;;;;15.80;7.53;;;8.50;99.90;;;;;;4793214;29;20064;-75
2023/11/13 11:10:09;;;;;;;14.07;7.40;;;8.60;99.90;;;;;;4822845;29;20082;-76
2023/11/13 11:12:45;;;;;;;12.48;6.88;;;8.60;99.90;;;;;;4823214;29;20054;-76
2023/11/13 11:15:54;;;;;;;14.75;7.90;;;8.50;99.90;;;;;;4810821;29;20128;-77
2023/11/13 11:18:28;;;;;;;15.85;7.72;;;8.50;99.90;;;;;;4796379;29;20478;-77
2023/11/13 11:21:15;;;;;;;15.40;7.88;;;8.50;99.90;;;;;;4799757;29;20078;-76
2023/11/13 11:23:51;;;;;;;18.45;8.90;;;8.60;99.90;;;;;;4834710;29;20053;-77
2023/11/13 11:26:25;;;;;;;12.98;7.43;;;8.60;99.90;;;;;;4839187;29;20049;-75
2023/11/13 11:28:55;;;;;;;18.02;8.13;;;8.50;99.90;;;;;;4855102;29;20163;-75
2023/11/13 11:31:50;;;;;;;17.67;8.13;;;8.60;99.90;;;;;;4855068;29;20143;-76
2023/11/13 11:34:22;;;;;;;18.50;9.00;;;8.60;99.90;;;;;;4854167;29;20057;-76
2023/11/13 11:37:00;;;;;;;15.85;8.57;;;8.60;99.90;;;;;;4847777;29;20243;-75
2023/11/13 11:39:29;;;;;;;17.63;8.30;;;8.60;99.90;;;;;;4846153;29;20053;-76
2023/11/13 11:42:00;;;;;;;19.55;7.95;;;8.50;99.90;;;;;;4856924;29;20164;-76
2023/11/13 11:44:31;;;;;;;14.50;7.95;;;8.60;99.90;;;;;;4859485;29;20061;-76
2023/11/13 11:47:04;;;;;;;15.25;8.27;;;8.50;99.90;;;;;;4862186;29;20045;-75
2023/11/13 11:49:44;;;;;;;16.00;9.13;;;8.60;99.90;;;;;;4853680;29;20049;-76
2023/11/13 11:52:18;;;;;;;16.50;9.27;;;8.70;99.90;;;;;;4845029;29;20632;-81
2023/11/13 11:55:02;;;;;;;17.42;8.90;;;8.70;99.90;;;;;;4815823;29;20061;-82
2023/11/13 11:57:31;;;;;;;15.90;8.55;;;8.80;99.90;;;;;;4808402;29;20362;-82
2023/11/13 12:00:00;;;;;;;16.33;8.88;;;7.50;99.90;;;;;;4838954;29;20086;-82
2023/11/13 12:02:39;;;;;;;14.50;8.80;;;8.80;99.90;;;;;;4834734;29;20103;-82
2023/11/13 12:05:09;;;;;;;17.48;9.50;;;8.70;99.90;;;;;;4828095;29;20067;-81
2023/11/13 12:07:39;;;;;;;16.90;9.27;;;8.80;99.90;;;;;;4828050;29;20061;-81
2023/11/13 12:10:10;;;;;;;19.80;8.98;;;8.70;99.90;;;;;;4841776;29;20297;-81
2023/11/13 12:12:41;;;;;;;17.08;9.48;;;8.70;99.90;;;;;;4921427;29;20063;-80
2023/11/13 12:15:11;;;;;;;21.77;10.70;;;8.70;99.90;;;;;;4888684;29;20059;-81
2023/11/13 12:17:41;;;;;;;18.45;9.68;;;8.60;99.90;;;;;;4874275;29;20051;-81
2023/11/13 12:20:11;;;;;;;19.88;9.70;;;8.60;99.90;;;;;;4900111;29;20052;-81
2023/11/13 12:22:51;;;;;;;16.88;8.57;;;8.60;99.90;;;;;;4881379;29;22322;-81
2023/11/13 12:25:20;;;;;;;19.08;10.10;;;8.70;99.90;;;;;;4898218;29;20047;-81
2023/11/13 12:27:49;;;;;;;15.13;8.90;;;8.70;99.90;;;;;;4897924;29;20194;-81
2023/11/13 12:30:20;;;;;;;19.80;9.68;;;8.90;99.90;;;;;;4892271;29;20060;-81
2023/11/13 12:32:50;;;;;;;19.85;9.73;;;8.80;99.90;;;;;;4877507;29;20070;-81
2023/11/13 12:35:20;;;;;;;19.40;9.45;;;9.20;99.90;;;;;;4890565;29;20059;-81
2023/11/13 12:37:51;;;;;;;19.65;9.82;;;8.90;99.90;;;;;;4882893;29;20044;-81
2023/11/13 12:40:21;;;;;;;17.60;9.70;;;9.00;99.90;;;;;;4881401;29;20102;-80
2023/11/13 12:42:51;;;;;;;20.42;10.27;;;9.10;99.90;;;;;;4899038;29;20047;-80
2023/11/13 12:45:20;;;;;;;22.40;10.35;;;9.20;99.90;;;;;;4900836;29;20074;-80
2023/11/13 12:47:50;;;;;;;16.10;9.00;;;9.10;99.90;;;;;;4897051;29;20052;-81
2023/11/13 12:50:20;;;;;;;18.58;10.13;;;9.20;99.90;;;;;;4900830;29;20085;-81
2023/11/13 12:52:53;;;;;;;19.50;9.95;;;9.20;99.90;;;;;;4900093;29;22068;-80
2023/11/13 12:55:23;;;;;;;20.83;10.48;;;9.10;99.90;;;;;;4897808;29;20066;-80
2023/11/13 12:57:54;;;;;;;21.27;11.02;;;9.20;99.90;;;;;;4899087;29;20047;-81